Time;durP1;ratioP1;P1;durP2;ratioP2;P2;SDS_P1;SDS_P2;PMS_P1;PMS_P2;Temp;Humidity;BMP_temperature;BMP_pressure;BME280_temperature;BME280_humidity;BME280_pressure;Samples;Min_cycle;Max_cycle;Signal;HPM_P1;HPM_P2
2022/06/04 00:01:00;;;;;;;3.05;1.60;;;13.20;99.90;;;;;;4967145;28;20030;-72
2022/06/04 00:03:28;;;;;;;7.13;4.75;;;13.30;99.90;;;;;;4964822;28;20030;-67
2022/06/04 00:05:58;;;;;;;3.17;1.92;;;13.30;99.90;;;;;;4968418;28;20098;-72
2022/06/04 00:08:27;;;;;;;2.17;1.45;;;13.50;99.90;;;;;;4947578;28;20034;-66
2022/06/04 00:16:29;;;;;;;2.40;1.17;;;14.10;99.90;;;;;;4970306;28;20033;-66
2022/06/04 00:18:57;;;;;;;2.65;0.77;;;14.10;99.90;;;;;;4968750;28;20030;-66
2022/06/04 00:21:25;;;;;;;1.30;0.98;;;14.20;99.90;;;;;;4971355;28;20038;-65
2022/06/04 00:23:53;;;;;;;4.88;1.63;;;14.30;99.90;;;;;;4970057;28;20156;-74
2022/06/04 00:26:21;;;;;;;11.82;4.53;;;14.30;99.90;;;;;;4969561;28;20027;-68
2022/06/04 00:28:48;;;;;;;5.75;1.88;;;14.50;99.90;;;;;;4968255;28;20214;-68
2022/06/04 00:31:18;;;;;;;1.77;0.80;;;14.60;99.90;;;;;;4969103;28;20039;-71
2022/06/04 00:33:45;;;;;;;1.45;1.00;;;14.80;99.90;;;;;;4970270;28;20023;-73
2022/06/04 00:36:13;;;;;;;1.55;0.88;;;14.80;99.90;;;;;;4953553;28;20030;-74
2022/06/04 00:38:40;;;;;;;0.95;0.68;;;14.80;99.90;;;;;;4966679;28;20114;-67
2022/06/04 00:41:21;;;;;;;3.47;1.08;;;15.00;99.90;;;;;;4971309;28;20027;-67
2022/06/04 00:44:03;;;;;;;6.55;2.83;;;15.10;99.90;;;;;;4967986;28;20057;-67
2022/06/04 00:46:42;;;;;;;1.00;0.40;;;15.40;99.90;;;;;;4966244;28;20026;-74
2022/06/04 00:49:20;;;;;;;5.97;1.08;;;15.50;99.90;;;;;;4970783;28;20090;-67
2022/06/04 00:51:51;;;;;;;3.88;1.05;;;15.60;99.90;;;;;;4969107;28;20117;-68
2022/06/04 00:54:19;;;;;;;2.38;0.90;;;15.60;99.90;;;;;;4968189;28;20035;-69
2022/06/04 00:57:10;;;;;;;4.72;2.53;;;15.60;99.90;;;;;;4965482;28;20034;-68
2022/06/04 00:59:59;;;;;;;1.70;0.40;;;15.80;99.90;;;;;;4949595;28;20122;-69
2022/06/04 01:02:35;;;;;;;4.18;0.75;;;15.90;99.90;;;;;;4969874;28;20050;-69
2022/06/04 01:05:09;;;;;;;3.50;0.63;;;15.80;99.40;;;;;;4970252;28;20034;-72
2022/06/04 01:08:00;;;;;;;1.52;0.30;;;15.90;99.90;;;;;;4968860;28;20551;-70
2022/06/04 01:11:11;;;;;;;5.57;1.85;;;16.10;98.40;;;;;;4967996;28;20026;-75
2022/06/04 01:14:01;;;;;;;6.82;0.80;;;16.00;98.70;;;;;;4965766;28;20134;-68
2022/06/04 01:17:09;;;;;;;0.85;0.40;;;16.20;98.60;;;;;;4965088;28;20190;-75
2022/06/04 01:19:54;;;;;;;0.73;0.20;;;16.20;98.70;;;;;;4907887;29;20638;-68
2022/06/04 01:23:04;;;;;;;0.50;0.30;;;16.30;98.60;;;;;;4906474;29;20028;-68
2022/06/04 01:25:37;;;;;;;3.20;0.80;;;16.50;99.60;;;;;;4855215;29;20042;-69
2022/06/04 01:28:16;;;;;;;0.90;0.38;;;16.70;97.30;;;;;;4851732;29;20214;-69
2022/06/04 01:30:50;;;;;;;1.95;0.70;;;16.80;97.60;;;;;;4859061;29;20428;-73
2022/06/04 01:33:33;;;;;;;0.52;0.40;;;16.90;97.30;;;;;;4861552;29;20033;-69
2022/06/04 01:36:20;;;;;;;6.40;1.35;;;17.10;97.10;;;;;;4853041;29;20133;-72
2022/06/04 01:38:58;;;;;;;2.00;1.08;;;17.20;97.20;;;;;;4857189;29;20507;-69
2022/06/04 01:41:33;;;;;;;0.95;0.40;;;17.20;96.40;;;;;;4853388;29;20032;-72
2022/06/04 01:44:08;;;;;;;3.33;0.52;;;17.20;95.00;;;;;;4857663;29;20052;-76
2022/06/04 01:46:41;;;;;;;0.88;0.40;;;17.10;94.90;;;;;;4858121;29;20063;-68
2022/06/04 01:49:25;;;;;;;1.60;0.45;;;16.90;95.10;;;;;;4857113;29;20037;-73
2022/06/04 01:51:58;;;;;;;8.60;0.75;;;17.00;95.80;;;;;;4857778;29;20033;-75
2022/06/04 01:54:38;;;;;;;0.50;0.32;;;16.90;95.50;;;;;;4858533;29;20124;-70
2022/06/04 01:57:38;;;;;;;1.67;0.25;;;17.00;95.30;;;;;;4899028;29;20324;-69
2022/06/04 02:00:15;;;;;;;1.98;0.50;;;17.20;94.60;;;;;;4901635;29;20115;-70
2022/06/04 02:03:01;;;;;;;1.35;0.50;;;17.30;94.40;;;;;;4934253;28;20054;-65
2022/06/04 02:05:38;;;;;;;0.90;0.50;;;17.20;95.00;;;;;;4962270;28;20035;-70
2022/06/04 02:08:08;;;;;;;2.83;0.88;;;17.40;94.40;;;;;;4961194;28;20065;-66
2022/06/04 02:10:42;;;;;;;0.82;0.40;;;17.40;94.40;;;;;;4961876;28;20022;-67
2022/06/04 02:13:14;;;;;;;2.53;0.65;;;17.60;93.60;;;;;;4960811;28;20056;-68
2022/06/04 02:15:55;;;;;;;1.75;0.63;;;17.70;93.20;;;;;;4961987;28;20046;-69
2022/06/04 02:18:23;;;;;;;1.25;0.35;;;17.70;93.30;;;;;;4961244;28;20042;-69
2022/06/04 02:20:50;;;;;;;0.52;0.50;;;17.70;93.30;;;;;;4960182;28;20921;-67
2022/06/04 02:23:18;;;;;;;0.43;0.22;;;17.70;92.60;;;;;;4961670;28;20436;-67
2022/06/04 02:25:45;;;;;;;0.90;0.47;;;17.90;92.50;;;;;;4960967;28;20089;-67
2022/06/04 02:28:12;;;;;;;2.13;0.45;;;18.00;91.80;;;;;;4275196;28;10000633;-68
2022/06/04 02:30:48;;;;;;;3.25;0.50;;;17.90;91.60;;;;;;4957521;28;20054;-67
2022/06/04 02:33:26;;;;;;;3.28;0.60;;;17.90;91.90;;;;;;4957706;28;20300;-67
2022/06/04 02:36:08;;;;;;;6.75;1.95;;;18.00;92.60;;;;;;4959075;28;20034;-68
2022/06/04 02:39:17;;;;;;;0.85;0.70;;;18.10;91.20;;;;;;4957798;28;20391;-67
2022/06/04 02:42:08;;;;;;;2.15;0.40;;;18.30;92.60;;;;;;4269094;28;10000864;-68
2022/06/04 02:44:46;;;;;;;1.80;0.40;;;18.40;92.10;;;;;;4618158;28;10001568;-66
2022/06/04 02:47:19;;;;;;;5.32;0.98;;;18.50;90.80;;;;;;4940585;28;20042;-66
2022/06/04 02:50:25;;;;;;;0.73;0.47;;;18.50;92.70;;;;;;4955929;28;20038;-65
2022/06/04 02:52:55;;;;;;;2.13;0.60;;;18.60;91.70;;;;;;4898877;29;20040;-69
2022/06/04 02:55:29;;;;;;;0.57;0.50;;;18.50;91.60;;;;;;4898563;29;20031;-66
2022/06/04 02:58:01;;;;;;;4.35;0.68;;;18.60;90.40;;;;;;4898072;29;20052;-68
2022/06/04 03:00:29;;;;;;;1.20;0.40;;;18.50;89.70;;;;;;4900472;29;20819;-66
2022/06/04 03:02:56;;;;;;;0.55;0.32;;;18.30;91.30;;;;;;4899854;29;20044;-65
2022/06/04 03:05:26;;;;;;;0.82;0.47;;;18.40;91.40;;;;;;4899505;29;20390;-69
2022/06/04 03:08:00;;;;;;;1.92;0.40;;;18.30;90.40;;;;;;4899319;29;20040;-66
2022/06/04 03:10:31;;;;;;;1.00;0.55;;;18.20;91.30;;;;;;4899861;29;20585;-66
2022/06/04 03:12:58;;;;;;;2.15;0.95;;;18.30;90.10;;;;;;4900100;29;20209;-66
2022/06/04 03:15:26;;;;;;;0.63;0.50;;;18.30;90.80;;;;;;4900809;29;20044;-65
2022/06/04 03:17:53;;;;;;;3.75;0.43;;;18.20;90.40;;;;;;4897924;29;20095;-68
2022/06/04 03:20:24;;;;;;;0.45;0.30;;;18.30;90.90;;;;;;4896915;29;20072;-69
2022/06/04 03:22:52;;;;;;;1.60;0.40;;;18.30;91.20;;;;;;4898364;29;20425;-69
2022/06/04 03:25:20;;;;;;;0.75;0.40;;;18.30;90.50;;;;;;4898994;29;20046;-68
2022/06/04 03:27:48;;;;;;;1.15;0.45;;;18.40;91.30;;;;;;4899238;29;20048;-67
2022/06/04 03:30:16;;;;;;;1.23;0.50;;;18.60;91.00;;;;;;4957130;28;20162;-67
2022/06/04 03:32:44;;;;;;;1.15;0.60;;;18.80;90.00;;;;;;4958414;28;20035;-68
2022/06/04 03:35:14;;;;;;;2.50;0.70;;;18.80;90.30;;;;;;4960313;28;20069;-68
2022/06/04 03:37:41;;;;;;;1.05;0.40;;;18.80;89.20;;;;;;4959711;28;20045;-70
2022/06/04 03:40:09;;;;;;;1.90;0.35;;;18.80;88.80;;;;;;4959433;28;20640;-67
2022/06/04 03:42:36;;;;;;;2.42;0.52;;;18.80;89.70;;;;;;4959655;28;20027;-69
2022/06/04 03:45:05;;;;;;;4.45;0.50;;;18.70;86.60;;;;;;4960466;28;20031;-70
2022/06/04 03:47:36;;;;;;;1.05;0.40;;;18.50;88.30;;;;;;4959312;28;20033;-67
2022/06/04 03:50:10;;;;;;;3.08;0.57;;;18.40;88.30;;;;;;4958687;28;20110;-67
2022/06/04 03:52:37;;;;;;;1.20;0.52;;;18.50;87.50;;;;;;4962240;28;20511;-67
2022/06/04 03:55:06;;;;;;;0.55;0.30;;;18.60;88.70;;;;;;4965367;28;20041;-68
2022/06/04 03:57:39;;;;;;;2.50;0.50;;;18.50;88.00;;;;;;4964969;28;20026;-68
2022/06/04 04:00:12;;;;;;;0.88;0.30;;;18.50;89.00;;;;;;4964348;28;20120;-70
2022/06/04 04:02:40;;;;;;;0.77;0.60;;;18.40;88.10;;;;;;4962638;28;20021;-67
2022/06/04 04:05:09;;;;;;;1.63;0.40;;;18.50;90.30;;;;;;4964157;28;20039;-67
2022/06/04 04:07:37;;;;;;;0.38;0.28;;;18.50;88.60;;;;;;4948794;28;20523;-70
2022/06/04 04:10:05;;;;;;;1.23;0.40;;;18.60;89.70;;;;;;4965657;28;20019;-68
2022/06/04 04:12:32;;;;;;;1.83;0.55;;;18.70;89.00;;;;;;4966067;28;20069;-68
2022/06/04 04:15:00;;;;;;;1.92;0.30;;;18.80;89.10;;;;;;4965422;28;20022;-69
2022/06/04 04:17:27;;;;;;;1.55;0.93;;;18.80;87.80;;;;;;4965468;28;20031;-67
2022/06/04 04:19:54;;;;;;;2.13;1.20;;;19.00;88.60;;;;;;4965020;28;20033;-69
2022/06/04 04:22:21;;;;;;;2.72;0.93;;;19.00;87.10;;;;;;4965731;28;20018;-67
2022/06/04 04:24:48;;;;;;;0.50;0.40;;;19.10;87.20;;;;;;4965060;28;20027;-68
2022/06/04 04:27:16;;;;;;;1.30;0.50;;;19.10;87.30;;;;;;4964548;28;20031;-67
2022/06/04 04:29:43;;;;;;;1.25;0.60;;;18.90;87.70;;;;;;4963539;28;20080;-70
2022/06/04 04:32:11;;;;;;;2.28;0.77;;;18.80;88.00;;;;;;4965582;28;20051;-67
2022/06/04 04:34:38;;;;;;;2.17;1.10;;;18.70;86.60;;;;;;4965927;28;20092;-71
2022/06/04 04:37:05;;;;;;;3.70;1.50;;;18.80;89.40;;;;;;4963989;28;20753;-68
2022/06/04 04:39:32;;;;;;;1.58;0.90;;;18.80;87.10;;;;;;4958597;28;20058;-71
2022/06/04 04:41:59;;;;;;;1.95;0.57;;;18.50;88.50;;;;;;4962358;28;20031;-66
2022/06/04 04:44:27;;;;;;;2.47;0.88;;;18.50;88.80;;;;;;4962479;28;20034;-68
2022/06/04 04:46:54;;;;;;;0.95;0.57;;;18.50;88.00;;;;;;4963283;28;20037;-67
2022/06/04 04:49:21;;;;;;;0.95;0.55;;;18.60;90.20;;;;;;4961249;28;20029;-65
2022/06/04 04:51:49;;;;;;;1.13;0.50;;;18.60;90.00;;;;;;4962574;28;20054;-69
2022/06/04 04:54:16;;;;;;;1.08;0.40;;;18.70;88.80;;;;;;4961880;28;20027;-68
2022/06/04 04:56:44;;;;;;;3.20;0.47;;;18.70;87.20;;;;;;4963064;28;20022;-70
2022/06/04 04:59:12;;;;;;;2.13;0.60;;;18.70;87.80;;;;;;4962508;28;20543;-67
2022/06/04 05:01:39;;;;;;;2.25;0.85;;;18.80;87.00;;;;;;4962246;28;20034;-66
2022/06/04 05:04:06;;;;;;;2.58;0.77;;;18.60;86.50;;;;;;4960907;28;20057;-68
2022/06/04 05:06:33;;;;;;;3.00;1.05;;;18.60;88.00;;;;;;4961167;28;20027;-67
2022/06/04 05:09:01;;;;;;;1.55;0.47;;;18.70;88.50;;;;;;4961165;28;20475;-67
2022/06/04 05:11:30;;;;;;;1.38;0.70;;;18.70;87.60;;;;;;4961590;28;20035;-68
2022/06/04 05:13:58;;;;;;;1.77;0.38;;;18.50;87.40;;;;;;4961768;28;20134;-67
2022/06/04 05:16:35;;;;;;;1.67;0.40;;;18.50;89.50;;;;;;4961136;28;20015;-67
2022/06/04 05:19:04;;;;;;;0.35;0.32;;;18.70;87.80;;;;;;4961291;28;20539;-67
2022/06/04 05:21:47;;;;;;;1.55;0.68;;;18.90;87.90;;;;;;4959079;28;20034;-66
2022/06/04 05:24:21;;;;;;;1.00;0.57;;;19.10;87.50;;;;;;4960330;28;20418;-65
2022/06/04 05:26:50;;;;;;;1.77;0.45;;;19.30;85.20;;;;;;4958270;28;20022;-67
2022/06/04 05:29:20;;;;;;;1.03;0.40;;;19.20;85.20;;;;;;4644107;23;10002641;-65
2022/06/04 05:31:48;;;;;;;0.82;0.60;;;19.30;85.80;;;;;;4958150;28;20050;-66
2022/06/04 05:34:18;;;;;;;5.13;3.75;;;19.30;85.90;;;;;;4940438;28;20031;-66
2022/06/04 05:36:46;;;;;;;5.75;3.28;;;19.40;85.00;;;;;;4957696;28;20058;-66
2022/06/04 05:39:15;;;;;;;1.85;0.98;;;19.30;84.00;;;;;;4956557;28;20033;-65
2022/06/04 05:41:43;;;;;;;0.95;0.30;;;19.30;84.00;;;;;;4957586;28;20093;-67
2022/06/04 05:44:10;;;;;;;0.52;0.30;;;19.10;82.60;;;;;;4959905;28;20050;-67
2022/06/04 05:46:42;;;;;;;0.40;0.30;;;18.60;83.40;;;;;;4960996;28;20058;-72
2022/06/04 05:49:19;;;;;;;0.98;0.40;;;18.00;85.60;;;;;;4957581;28;20588;-72
2022/06/04 05:51:47;;;;;;;0.95;0.40;;;17.30;87.40;;;;;;4956551;28;20027;-66
2022/06/04 05:54:15;;;;;;;0.47;0.47;;;16.90;88.00;;;;;;4956849;28;20031;-70
2022/06/04 05:56:45;;;;;;;0.70;0.60;;;16.60;89.70;;;;;;4957976;28;20059;-73
2022/06/04 05:59:16;;;;;;;0.55;0.40;;;16.50;90.00;;;;;;4957350;28;20671;-67
2022/06/04 06:01:44;;;;;;;1.10;0.70;;;16.50;90.10;;;;;;4957040;28;20350;-71
2022/06/04 06:04:14;;;;;;;1.75;1.25;;;16.30;91.00;;;;;;4957436;28;20117;-67
2022/06/04 06:06:45;;;;;;;0.93;0.70;;;16.20;91.20;;;;;;4939182;28;20062;-67
2022/06/04 06:09:13;;;;;;;2.10;0.95;;;16.00;91.00;;;;;;4957630;28;20027;-67
2022/06/04 06:11:42;;;;;;;2.08;1.17;;;16.00;91.60;;;;;;4952826;28;20030;-67
2022/06/04 06:14:10;;;;;;;2.20;0.90;;;16.00;91.70;;;;;;4958126;28;20038;-66
2022/06/04 06:16:42;;;;;;;1.98;1.48;;;15.90;91.90;;;;;;4957195;28;20035;-67
2022/06/04 06:19:09;;;;;;;2.35;1.60;;;15.80;92.40;;;;;;4958851;28;20566;-70
2022/06/04 06:21:37;;;;;;;2.05;1.38;;;15.60;92.60;;;;;;4958113;28;20161;-69
2022/06/04 06:24:08;;;;;;;1.08;0.90;;;15.50;92.80;;;;;;4960055;28;20805;-71
2022/06/04 06:26:41;;;;;;;2.17;1.60;;;15.50;92.90;;;;;;4956782;28;20034;-70
2022/06/04 06:29:08;;;;;;;1.55;0.95;;;15.30;93.20;;;;;;4958975;28;20097;-67
2022/06/04 06:31:36;;;;;;;1.48;0.60;;;15.20;93.40;;;;;;4959402;28;20041;-67
2022/06/04 06:34:03;;;;;;;2.05;1.60;;;15.00;93.70;;;;;;4959667;28;20027;-71
2022/06/04 06:36:30;;;;;;;2.10;1.23;;;14.90;94.20;;;;;;4959864;28;20015;-67
2022/06/04 06:38:58;;;;;;;2.35;1.45;;;14.80;94.40;;;;;;4959484;28;20030;-70
2022/06/04 06:41:26;;;;;;;2.63;1.52;;;14.70;94.60;;;;;;4957409;28;20038;-67
2022/06/04 06:43:54;;;;;;;1.83;1.20;;;14.60;94.80;;;;;;4959231;28;20043;-66
2022/06/04 06:46:39;;;;;;;2.13;1.00;;;14.50;95.30;;;;;;4959323;28;20121;-68
2022/06/04 06:49:14;;;;;;;3.15;1.30;;;14.30;95.70;;;;;;4959258;28;20062;-66
2022/06/04 06:51:48;;;;;;;4.30;1.52;;;14.20;96.10;;;;;;4958461;28;20034;-70
2022/06/04 06:54:17;;;;;;;2.67;1.75;;;14.10;96.10;;;;;;4960062;28;20051;-70
2022/06/04 06:56:46;;;;;;;2.88;1.20;;;14.00;96.60;;;;;;4959959;28;20576;-70
2022/06/04 06:59:13;;;;;;;2.72;2.17;;;13.90;97.00;;;;;;4958794;28;20026;-69
2022/06/04 07:01:42;;;;;;;3.13;2.78;;;13.80;97.30;;;;;;4959877;28;20026;-66
2022/06/04 07:04:10;;;;;;;7.47;5.65;;;13.70;97.40;;;;;;4959410;28;20027;-65
2022/06/04 07:06:40;;;;;;;3.17;2.08;;;13.60;97.80;;;;;;4956883;28;21065;-66
2022/06/04 07:09:23;;;;;;;4.35;3.45;;;13.60;97.70;;;;;;4958802;28;20038;-71
2022/06/04 07:11:51;;;;;;;3.30;2.00;;;13.50;98.20;;;;;;4942781;28;20475;-70
2022/06/04 07:14:18;;;;;;;3.85;2.35;;;13.40;98.50;;;;;;4959610;28;20031;-70
2022/06/04 07:16:46;;;;;;;2.30;1.85;;;13.10;99.10;;;;;;4956365;28;20606;-70
2022/06/04 07:19:15;;;;;;;4.05;2.13;;;13.00;99.80;;;;;;4957613;28;21341;-70
2022/06/04 07:21:42;;;;;;;3.63;2.15;;;12.90;99.90;;;;;;4957807;28;20559;-66
2022/06/04 07:24:11;;;;;;;3.00;2.05;;;12.90;99.90;;;;;;4956868;28;20551;-72
2022/06/04 07:26:39;;;;;;;3.08;2.30;;;12.90;99.90;;;;;;4961557;28;20027;-62
2022/06/04 07:29:07;;;;;;;6.50;4.57;;;12.80;99.90;;;;;;4964915;28;20050;-65
2022/06/04 07:31:35;;;;;;;4.03;2.13;;;12.80;99.90;;;;;;4963217;28;20045;-65
2022/06/04 07:34:03;;;;;;;2.75;2.20;;;12.70;99.90;;;;;;4963850;28;20034;-65
2022/06/04 07:36:34;;;;;;;2.67;1.73;;;12.70;99.90;;;;;;4968249;28;20034;-67
2022/06/04 07:39:02;;;;;;;3.38;2.40;;;12.70;99.90;;;;;;4964304;28;20034;-69
2022/06/04 07:41:36;;;;;;;4.97;2.38;;;12.80;99.90;;;;;;4967372;28;20037;-69
2022/06/04 07:44:03;;;;;;;2.40;1.45;;;12.60;99.90;;;;;;4966206;28;20069;-68
2022/06/04 07:46:32;;;;;;;3.05;2.28;;;12.60;99.90;;;;;;4965716;28;20116;-69
2022/06/04 07:49:00;;;;;;;3.58;2.03;;;12.60;99.90;;;;;;4965408;28;20562;-69
2022/06/04 07:51:29;;;;;;;4.18;2.50;;;12.60;99.90;;;;;;4963287;28;20039;-64
2022/06/04 07:53:56;;;;;;;3.40;3.10;;;12.50;99.90;;;;;;4967387;28;20027;-69
2022/06/04 07:56:24;;;;;;;5.57;2.40;;;12.40;99.90;;;;;;4967540;28;20051;-64
2022/06/04 07:58:51;;;;;;;3.72;2.50;;;12.20;99.90;;;;;;4964103;28;20038;-68
2022/06/04 08:01:21;;;;;;;3.58;2.85;;;12.20;99.90;;;;;;4963098;28;20141;-64
2022/06/04 08:03:49;;;;;;;3.53;2.75;;;12.10;99.90;;;;;;4963045;28;20027;-69
2022/06/04 08:06:17;;;;;;;5.28;3.38;;;12.10;99.90;;;;;;4960491;28;20558;-63
2022/06/04 08:08:50;;;;;;;5.38;3.22;;;11.90;99.90;;;;;;4961025;28;20042;-69
2022/06/04 08:11:35;;;;;;;4.18;3.47;;;11.90;99.90;;;;;;4961358;28;20077;-66
2022/06/04 08:14:16;;;;;;;11.60;7.38;;;11.80;99.90;;;;;;4960750;28;20085;-66
2022/06/04 08:16:51;;;;;;;4.97;3.42;;;11.80;99.90;;;;;;4962570;28;20505;-66
2022/06/04 08:19:19;;;;;;;5.05;2.85;;;11.90;99.90;;;;;;4960212;28;20031;-69
2022/06/04 08:21:46;;;;;;;5.50;2.53;;;11.90;99.90;;;;;;4962132;28;20031;-64
2022/06/04 08:24:15;;;;;;;3.85;2.60;;;11.80;99.90;;;;;;4964553;28;20585;-65
2022/06/04 08:26:45;;;;;;;7.85;2.85;;;11.60;99.90;;;;;;4961980;28;20093;-65
2022/06/04 08:29:13;;;;;;;4.78;2.50;;;11.60;99.90;;;;;;4961395;28;20043;-64
2022/06/04 08:31:40;;;;;;;5.00;2.75;;;11.50;99.90;;;;;;4960706;28;20064;-66
2022/06/04 08:34:08;;;;;;;4.38;3.35;;;11.50;99.90;;;;;;4962842;28;20023;-70
2022/06/04 08:36:35;;;;;;;5.97;4.00;;;11.40;99.90;;;;;;4960514;28;20039;-74
2022/06/04 08:39:03;;;;;;;6.10;4.75;;;11.40;99.90;;;;;;4961585;28;20027;-70
2022/06/04 08:41:46;;;;;;;7.78;4.75;;;11.40;99.90;;;;;;4962203;28;20090;-70
2022/06/04 08:44:21;;;;;;;5.25;4.05;;;11.40;99.90;;;;;;4961673;28;20031;-72
2022/06/04 08:47:12;;;;;;;7.03;4.13;;;11.30;99.90;;;;;;4960528;28;20908;-68
2022/06/04 08:50:04;;;;;;;5.00;3.50;;;11.20;99.90;;;;;;4959373;28;20699;-62
2022/06/04 08:52:34;;;;;;;5.80;3.90;;;11.10;99.90;;;;;;4960298;28;20031;-63
2022/06/04 08:58:16;;;;;;;5.70;3.50;;;11.20;99.90;;;;;;4959952;28;20053;-74
2022/06/04 09:01:09;;;;;;;5.60;3.75;;;11.20;99.90;;;;;;4961963;28;20039;-68
2022/06/04 09:03:53;;;;;;;7.63;4.25;;;11.10;99.90;;;;;;4960080;28;20121;-63
2022/06/04 09:06:31;;;;;;;5.25;3.55;;;11.10;99.90;;;;;;4960965;28;20039;-64
2022/06/04 09:09:31;;;;;;;4.50;3.05;;;11.10;99.90;;;;;;4960165;28;20388;-69
2022/06/04 09:12:22;;;;;;;6.38;5.43;;;10.90;99.90;;;;;;4892479;29;20052;-71
2022/06/04 09:15:02;;;;;;;6.28;5.68;;;10.80;99.90;;;;;;4892154;29;20473;-69
2022/06/04 09:17:42;;;;;;;5.80;5.15;;;10.70;99.90;;;;;;4891956;29;20075;-61
2022/06/04 09:20:26;;;;;;;5.93;4.97;;;10.80;99.90;;;;;;4890272;29;20040;-63
2022/06/04 09:23:16;;;;;;;4.80;2.95;;;10.90;99.90;;;;;;4889865;29;20119;-67
2022/06/04 09:25:48;;;;;;;3.80;3.08;;;11.00;99.90;;;;;;4892034;29;20204;-63
2022/06/04 09:28:33;;;;;;;5.07;4.22;;;11.00;99.90;;;;;;4889893;29;20494;-68
2022/06/04 09:31:26;;;;;;;5.43;3.83;;;11.10;99.90;;;;;;4891290;29;20058;-71
2022/06/04 09:34:04;;;;;;;6.00;3.30;;;11.20;99.90;;;;;;4891393;29;20538;-66
2022/06/04 09:36:37;;;;;;;4.63;3.05;;;11.30;99.90;;;;;;4890590;29;20309;-67
2022/06/04 09:39:24;;;;;;;5.22;4.00;;;11.20;99.90;;;;;;4891059;29;20113;-68
2022/06/04 09:42:02;;;;;;;7.88;4.00;;;11.10;99.90;;;;;;4891102;29;20615;-69
2022/06/04 09:44:32;;;;;;;4.80;3.95;;;11.10;99.90;;;;;;4890458;29;20846;-69
2022/06/04 09:47:31;;;;;;;5.50;3.47;;;11.00;99.90;;;;;;4906062;28;20043;-67
2022/06/04 09:50:05;;;;;;;5.38;4.03;;;11.00;99.90;;;;;;4959045;28;20071;-67
2022/06/04 09:52:42;;;;;;;7.30;4.75;;;10.90;99.90;;;;;;4960836;28;20073;-67
2022/06/04 09:55:22;;;;;;;7.30;4.60;;;10.90;99.90;;;;;;4961222;28;20057;-67
2022/06/04 09:58:16;;;;;;;6.13;3.50;;;10.70;99.90;;;;;;4961167;28;20027;-69
2022/06/04 10:01:02;;;;;;;5.82;4.68;;;10.70;99.90;;;;;;4961339;28;20089;-68
2022/06/04 10:03:32;;;;;;;5.05;4.38;;;10.70;99.90;;;;;;4959724;28;20050;-68
2022/06/04 10:06:08;;;;;;;5.93;4.93;;;10.60;99.90;;;;;;4960027;28;20046;-69
2022/06/04 10:11:24;;;;;;;4.60;3.65;;;10.40;99.90;;;;;;4959809;28;20129;-68
2022/06/04 10:13:54;;;;;;;5.15;3.42;;;10.30;99.90;;;;;;4960546;28;20026;-67
2022/06/04 10:16:28;;;;;;;6.20;3.33;;;10.30;99.90;;;;;;4959895;28;20038;-69
2022/06/04 10:19:17;;;;;;;5.45;3.38;;;10.10;99.90;;;;;;4960339;28;20823;-68
2022/06/04 10:21:47;;;;;;;3.85;3.28;;;10.00;99.90;;;;;;4959422;28;20113;-68
2022/06/04 10:24:25;;;;;;;3.53;2.97;;;9.90;99.90;;;;;;4960542;28;20026;-68
2022/06/04 10:27:01;;;;;;;5.50;3.55;;;9.80;99.90;;;;;;4960933;28;20054;-70
2022/06/04 10:29:36;;;;;;;9.70;4.88;;;9.80;99.90;;;;;;4959284;28;20049;-69
2022/06/04 10:32:49;;;;;;;10.02;5.18;;;9.80;99.90;;;;;;4958443;28;20026;-69
2022/06/04 10:35:41;;;;;;;4.05;3.65;;;9.70;99.90;;;;;;4959032;28;20035;-68
2022/06/04 10:38:43;;;;;;;7.50;4.78;;;9.60;99.90;;;;;;4955969;28;20030;-67
2022/06/04 10:41:23;;;;;;;7.20;5.68;;;9.40;99.90;;;;;;4957930;28;20113;-67
2022/06/04 10:44:27;;;;;;;10.15;7.85;;;9.30;99.90;;;;;;4957714;28;20034;-69
2022/06/04 10:46:58;;;;;;;;;;;9.30;99.90;;;;;;4958075;28;20066;-69
2022/06/04 10:49:31;;;;;;;7.80;5.18;;;9.30;99.90;;;;;;4958051;28;20336;-69
2022/06/04 10:52:16;;;;;;;6.22;4.07;;;9.30;99.90;;;;;;4957895;28;20324;-68
2022/06/04 10:54:53;;;;;;;6.22;4.00;;;9.30;99.90;;;;;;4939136;28;20035;-66
2022/06/04 10:57:33;;;;;;;5.20;3.65;;;9.30;99.90;;;;;;4959736;28;20098;-65
2022/06/04 11:00:14;;;;;;;7.18;3.58;;;9.30;99.90;;;;;;4958719;28;20052;-69
2022/06/04 11:03:10;;;;;;;5.93;4.18;;;9.30;99.90;;;;;;4958914;28;20029;-66
2022/06/04 11:06:01;;;;;;;7.35;4.13;;;9.30;99.90;;;;;;4959099;28;20042;-68
2022/06/04 11:08:41;;;;;;;7.15;4.45;;;9.30;99.90;;;;;;4959334;28;20097;-68
2022/06/04 11:11:43;;;;;;;4.53;3.95;;;9.40;99.90;;;;;;4958747;28;20034;-67
2022/06/04 11:14:35;;;;;;;4.18;3.58;;;9.40;99.90;;;;;;4956163;28;20137;-69
2022/06/04 11:17:13;;;;;;;7.65;4.68;;;9.50;99.90;;;;;;4960452;28;20499;-67
2022/06/04 11:20:00;;;;;;;5.53;3.90;;;9.50;99.90;;;;;;4960863;28;20039;-67
2022/06/04 11:22:51;;;;;;;4.97;3.53;;;9.50;99.90;;;;;;4961716;28;20026;-67
2022/06/04 11:25:24;;;;;;;4.03;2.85;;;9.60;99.90;;;;;;4964297;28;20819;-66
2022/06/04 11:27:59;;;;;;;5.38;3.40;;;9.70;99.90;;;;;;4962514;28;20069;-68
2022/06/04 11:30:58;;;;;;;6.63;4.07;;;9.80;99.90;;;;;;4961501;28;20066;-69
2022/06/04 11:34:08;;;;;;;5.20;3.70;;;9.80;99.90;;;;;;4963599;28;20133;-67
2022/06/04 11:37:11;;;;;;;3.10;2.80;;;9.70;99.90;;;;;;4912649;29;20051;-67
2022/06/04 11:39:41;;;;;;;4.05;3.20;;;9.60;99.90;;;;;;4912022;29;20487;-66
2022/06/04 11:42:32;;;;;;;6.13;3.92;;;9.50;99.90;;;;;;4910843;29;20046;-68
2022/06/04 11:45:22;;;;;;;13.82;7.97;;;9.50;99.90;;;;;;4911976;29;20801;-67
2022/06/04 11:48:53;;;;;;;5.10;3.28;;;9.30;99.90;;;;;;4912502;29;20103;-67
2022/06/04 11:51:26;;;;;;;3.08;2.15;;;9.20;99.90;;;;;;4821160;29;20046;-67
2022/06/04 11:54:22;;;;;;;3.35;2.58;;;9.10;99.90;;;;;;4818823;29;20047;-67
2022/06/04 11:57:00;;;;;;;3.72;1.98;;;9.20;99.90;;;;;;4820520;29;20035;-67
2022/06/04 11:59:50;;;;;;;2.88;1.90;;;9.30;99.90;;;;;;4820438;29;20057;-67
2022/06/04 12:02:39;;;;;;;3.40;1.88;;;9.30;99.90;;;;;;4781859;29;20223;-67
2022/06/04 12:05:15;;;;;;;2.85;1.70;;;9.30;99.90;;;;;;4781946;29;20039;-68
2022/06/04 12:07:51;;;;;;;2.53;1.60;;;9.30;99.90;;;;;;4781781;29;20059;-63
2022/06/04 12:10:18;;;;;;;2.58;1.70;;;9.30;99.90;;;;;;4781627;29;20834;-64
2022/06/04 12:13:09;;;;;;;1.95;1.60;;;9.20;99.90;;;;;;4788696;29;20133;-67
2022/06/04 12:15:43;;;;;;;2.47;1.60;;;9.10;99.90;;;;;;4794730;29;20046;-71
2022/06/04 12:18:44;;;;;;;3.58;1.60;;;9.10;99.90;;;;;;4794959;29;20045;-67
2022/06/04 12:24:32;;;;;;;1.80;1.60;;;9.10;99.90;;;;;;4863701;29;20040;-66
2022/06/04 12:27:08;;;;;;;4.57;1.90;;;9.10;99.90;;;;;;4862855;29;20090;-63
2022/06/04 12:29:47;;;;;;;2.70;2.05;;;9.10;99.90;;;;;;4886283;29;20640;-63
2022/06/04 12:32:34;;;;;;;2.30;1.67;;;9.20;99.90;;;;;;4886188;29;20044;-70
2022/06/04 12:35:11;;;;;;;1.77;1.58;;;9.20;99.90;;;;;;4870808;29;20393;-66
2022/06/04 12:37:41;;;;;;;2.38;1.70;;;9.20;99.90;;;;;;4887021;29;20117;-68
2022/06/04 12:40:32;;;;;;;3.05;1.92;;;9.10;99.90;;;;;;4949544;28;20322;-65
2022/06/04 12:43:23;;;;;;;3.83;1.88;;;9.10;99.90;;;;;;4964692;28;20428;-63
2022/06/04 12:45:53;;;;;;;1.70;1.60;;;9.10;99.90;;;;;;4966158;28;20035;-62
2022/06/04 12:48:29;;;;;;;3.80;1.70;;;9.10;99.90;;;;;;4964395;28;20038;-62
2022/06/04 12:51:12;;;;;;;2.35;1.75;;;9.10;99.90;;;;;;4964058;28;20408;-69
2022/06/04 12:54:08;;;;;;;;;;;9.00;99.90;;;;;;4966604;28;20550;-70
2022/06/04 12:56:40;;;;;;;3.08;2.00;;;9.00;99.90;;;;;;4906715;29;19915;-63
2022/06/04 12:59:37;;;;;;;3.17;1.80;;;9.10;99.90;;;;;;4905784;29;20044;-67
2022/06/04 13:02:32;;;;;;;2.17;1.80;;;9.10;99.90;;;;;;4905733;29;20286;-63
2022/06/04 13:05:23;;;;;;;2.15;1.70;;;9.10;99.90;;;;;;4904964;29;20139;-70
2022/06/04 13:08:00;;;;;;;2.40;1.67;;;9.00;99.90;;;;;;4906051;29;20044;-62
2022/06/04 13:10:49;;;;;;;2.35;1.80;;;9.00;99.90;;;;;;4906351;29;20060;-66
2022/06/04 13:13:41;;;;;;;4.22;2.00;;;9.00;99.90;;;;;;4906574;29;20096;-66
2022/06/04 13:16:24;;;;;;;2.20;1.65;;;9.00;99.90;;;;;;4906468;29;20051;-63
2022/06/04 13:19:08;;;;;;;4.38;1.73;;;9.10;99.90;;;;;;4905299;29;20032;-70
2022/06/04 13:21:41;;;;;;;3.17;1.58;;;9.10;99.90;;;;;;4906686;29;20040;-63
2022/06/04 13:24:20;;;;;;;2.95;1.63;;;9.10;99.90;;;;;;4905859;29;20048;-66
2022/06/04 13:27:01;;;;;;;3.60;1.50;;;9.20;99.90;;;;;;4906515;29;20127;-66
2022/06/04 13:29:32;;;;;;;2.40;1.40;;;9.20;99.90;;;;;;4905378;29;22164;-63
2022/06/04 13:32:20;;;;;;;2.25;1.60;;;9.20;99.90;;;;;;4908794;28;20880;-66
2022/06/04 13:34:49;;;;;;;1.63;1.20;;;9.10;99.90;;;;;;4964854;28;20031;-66
2022/06/04 13:37:25;;;;;;;1.65;1.27;;;9.20;99.90;;;;;;4965418;28;20030;-63
2022/06/04 13:39:55;;;;;;;2.05;1.30;;;9.20;99.90;;;;;;4965260;28;20027;-70
2022/06/04 13:42:38;;;;;;;2.42;1.50;;;9.20;99.90;;;;;;4965722;28;20058;-65
2022/06/04 13:45:24;;;;;;;;;;;9.20;99.90;;;;;;4966062;28;20034;-63
2022/06/04 13:47:58;;;;;;;2.88;1.70;;;9.30;99.90;;;;;;4895749;29;19915;-63
2022/06/04 13:50:31;;;;;;;2.22;1.25;;;9.30;99.90;;;;;;4893758;29;20257;-71